sensor_id;sensor_type;location;lat;lon;timestamp;P1;durP1;ratioP1;P2;durP2;ratioP2
63114;SDS011;49208;50.874;6.466;2024-02-28T07:30:05;46.25;;;19.25;;
63114;SDS011;49208;50.874;6.466;2024-02-28T07:32:31;57.47;;;22.17;;
63114;SDS011;49208;50.874;6.466;2024-02-28T07:35:00;59.75;;;21.50;;
63114;SDS011;49208;50.874;6.466;2024-02-28T07:37:26;59.38;;;24.23;;
63114;SDS011;49208;50.874;6.466;2024-02-28T07:39:51;55.63;;;23.48;;
63114;SDS011;49208;50.874;6.466;2024-02-28T07:42:16;54.53;;;23.10;;
63114;SDS011;49208;50.874;6.466;2024-02-28T07:44:42;56.13;;;21.27;;
63114;SDS011;49208;50.874;6.466;2024-02-28T07:47:08;59.70;;;21.50;;
63114;SDS011;49208;50.874;6.466;2024-02-28T07:49:33;65.70;;;23.45;;
63114;SDS011;49208;50.874;6.466;2024-02-28T07:51:59;53.90;;;22.10;;
63114;SDS011;49208;50.874;6.466;2024-02-28T07:54:24;52.55;;;21.80;;
63114;SDS011;49208;50.874;6.466;2024-02-28T07:56:50;45.38;;;20.42;;
63114;SDS011;49208;50.874;6.466;2024-02-28T07:59:15;42.20;;;18.67;;
63114;SDS011;49208;50.874;6.466;2024-02-28T08:01:40;41.38;;;20.52;;
63114;SDS011;49208;50.874;6.466;2024-02-28T08:04:06;41.92;;;18.50;;
63114;SDS011;49208;50.874;6.466;2024-02-28T08:06:31;35.05;;;15.95;;
63114;SDS011;49208;50.874;6.466;2024-02-28T08:08:58;29.10;;;15.00;;
63114;SDS011;49208;50.874;6.466;2024-02-28T08:11:23;31.25;;;14.88;;
63114;SDS011;49208;50.874;6.466;2024-02-28T08:13:50;27.35;;;14.02;;
63114;SDS011;49208;50.874;6.466;2024-02-28T08:16:15;25.60;;;13.57;;
63114;SDS011;49208;50.874;6.466;2024-02-28T08:18:41;24.92;;;14.13;;
63114;SDS011;49208;50.874;6.466;2024-02-28T08:21:06;28.30;;;14.38;;
63114;SDS011;49208;50.874;6.466;2024-02-28T08:23:31;28.40;;;13.98;;
63114;SDS011;49208;50.874;6.466;2024-02-28T08:25:57;24.80;;;12.57;;
63114;SDS011;49208;50.874;6.466;2024-02-28T08:28:22;30.95;;;14.52;;
63114;SDS011;49208;50.874;6.466;2024-02-28T08:30:48;26.35;;;14.73;;
63114;SDS011;49208;50.874;6.466;2024-02-28T08:33:14;31.30;;;14.43;;
63114;SDS011;49208;50.874;6.466;2024-02-28T08:35:39;32.67;;;14.75;;
63114;SDS011;49208;50.874;6.466;2024-02-28T08:38:04;32.08;;;14.52;;
63114;SDS011;49208;50.874;6.466;2024-02-28T08:40:30;32.20;;;15.55;;
63114;SDS011;49208;50.874;6.466;2024-02-28T08:42:55;27.90;;;13.45;;
63114;SDS011;49208;50.874;6.466;2024-02-28T08:45:22;33.13;;;14.93;;
63114;SDS011;49208;50.874;6.466;2024-02-28T08:47:48;31.00;;;14.63;;
63114;SDS011;49208;50.874;6.466;2024-02-28T08:50:13;29.40;;;13.57;;
63114;SDS011;49208;50.874;6.466;2024-02-28T08:52:39;25.85;;;13.80;;
63114;SDS011;49208;50.874;6.466;2024-02-28T08:55:04;29.83;;;14.52;;
63114;SDS011;49208;50.874;6.466;2024-02-28T08:57:30;24.05;;;12.13;;
63114;SDS011;49208;50.874;6.466;2024-02-28T08:59:55;22.27;;;12.50;;
63114;SDS011;49208;50.874;6.466;2024-02-28T09:02:21;23.35;;;13.05;;
63114;SDS011;49208;50.874;6.466;2024-02-28T09:04:46;20.83;;;11.25;;
63114;SDS011;49208;50.874;6.466;2024-02-28T09:07:16;22.00;;;12.38;;
63114;SDS011;49208;50.874;6.466;2024-02-28T09:09:44;22.00;;;11.10;;
63114;SDS011;49208;50.874;6.466;2024-02-28T09:12:10;21.90;;;11.95;;
63114;SDS011;49208;50.874;6.466;2024-02-28T09:14:36;22.58;;;12.35;;
63114;SDS011;49208;50.874;6.466;2024-02-28T09:17:01;26.98;;;13.07;;
63114;SDS011;49208;50.874;6.466;2024-02-28T09:19:30;23.00;;;12.70;;
63114;SDS011;49208;50.874;6.466;2024-02-28T09:21:59;24.13;;;11.75;;
63114;SDS011;49208;50.874;6.466;2024-02-28T09:24:24;20.77;;;11.70;;
63114;SDS011;49208;50.874;6.466;2024-02-28T09:26:51;23.38;;;12.35;;
63114;SDS011;49208;50.874;6.466;2024-02-28T09:29:16;28.02;;;12.75;;
63114;SDS011;49208;50.874;6.466;2024-02-28T09:31:42;24.00;;;13.20;;
63114;SDS011;49208;50.874;6.466;2024-02-28T09:34:07;25.35;;;12.00;;
63114;SDS011;49208;50.874;6.466;2024-02-28T09:36:43;30.45;;;13.10;;
63114;SDS011;49208;50.874;6.466;2024-02-28T09:39:13;23.63;;;12.93;;
63114;SDS011;49208;50.874;6.466;2024-02-28T09:41:42;23.70;;;12.63;;
63114;SDS011;49208;50.874;6.466;2024-02-28T09:44:07;24.50;;;13.73;;
63114;SDS011;49208;50.874;6.466;2024-02-28T09:46:35;25.38;;;13.10;;
63114;SDS011;49208;50.874;6.466;2024-02-28T09:49:04;24.30;;;13.50;;
63114;SDS011;49208;50.874;6.466;2024-02-28T09:51:32;27.27;;;12.43;;
63114;SDS011;49208;50.874;6.466;2024-02-28T09:53:59;26.88;;;13.35;;
63114;SDS011;49208;50.874;6.466;2024-02-28T09:56:25;22.38;;;12.50;;
63114;SDS011;49208;50.874;6.466;2024-02-28T09:58:51;24.58;;;12.57;;
63114;SDS011;49208;50.874;6.466;2024-02-28T10:01:17;25.75;;;12.52;;
63114;SDS011;49208;50.874;6.466;2024-02-28T10:03:46;23.92;;;11.40;;
63114;SDS011;49208;50.874;6.466;2024-02-28T10:06:13;23.65;;;12.48;;
63114;SDS011;49208;50.874;6.466;2024-02-28T10:08:38;22.20;;;12.68;;
63114;SDS011;49208;50.874;6.466;2024-02-28T10:11:04;22.10;;;12.68;;
63114;SDS011;49208;50.874;6.466;2024-02-28T10:13:31;24.37;;;12.80;;
63114;SDS011;49208;50.874;6.466;2024-02-28T10:15:56;25.95;;;12.40;;
63114;SDS011;49208;50.874;6.466;2024-02-28T10:18:21;25.33;;;12.38;;
63114;SDS011;49208;50.874;6.466;2024-02-28T10:20:47;24.67;;;12.55;;
63114;SDS011;49208;50.874;6.466;2024-02-28T10:23:13;20.38;;;11.10;;
63114;SDS011;49208;50.874;6.466;2024-02-28T10:25:42;20.80;;;11.73;;
63114;SDS011;49208;50.874;6.466;2024-02-28T10:28:09;21.27;;;12.15;;
63114;SDS011;49208;50.874;6.466;2024-02-28T10:30:38;22.25;;;11.02;;
63114;SDS011;49208;50.874;6.466;2024-02-28T10:33:05;22.55;;;11.88;;
63114;SDS011;49208;50.874;6.466;2024-02-28T10:35:34;22.90;;;11.88;;
63114;SDS011;49208;50.874;6.466;2024-02-28T10:38:00;22.48;;;12.82;;
63114;SDS011;49208;50.874;6.466;2024-02-28T10:40:25;21.50;;;11.70;;
63114;SDS011;49208;50.874;6.466;2024-02-28T10:42:52;20.25;;;11.52;;
63114;SDS011;49208;50.874;6.466;2024-02-28T10:45:18;21.52;;;11.52;;
63114;SDS011;49208;50.874;6.466;2024-02-28T10:47:45;22.00;;;11.48;;
63114;SDS011;49208;50.874;6.466;2024-02-28T10:50:14;22.65;;;12.02;;
63114;SDS011;49208;50.874;6.466;2024-02-28T10:52:43;24.00;;;12.32;;
63114;SDS011;49208;50.874;6.466;2024-02-28T10:55:11;23.55;;;11.82;;
63114;SDS011;49208;50.874;6.466;2024-02-28T10:57:38;20.60;;;11.85;;
63114;SDS011;49208;50.874;6.466;2024-02-28T11:00:04;23.27;;;11.95;;
63114;SDS011;49208;50.874;6.466;2024-02-28T11:02:34;22.17;;;12.13;;
63114;SDS011;49208;50.874;6.466;2024-02-28T11:05:00;22.63;;;12.32;;
63114;SDS011;49208;50.874;6.466;2024-02-28T11:07:30;22.60;;;12.40;;
63114;SDS011;49208;50.874;6.466;2024-02-28T11:09:55;23.65;;;11.43;;
63114;SDS011;49208;50.874;6.466;2024-02-28T11:12:28;19.67;;;10.25;;
63114;SDS011;49208;50.874;6.466;2024-02-28T11:14:56;21.60;;;11.77;;
63114;SDS011;49208;50.874;6.466;2024-02-28T11:17:29;25.27;;;12.90;;
63114;SDS011;49208;50.874;6.466;2024-02-28T11:22:21;21.98;;;11.07;;
63114;SDS011;49208;50.874;6.466;2024-02-28T11:24:47;19.45;;;10.73;;
63114;SDS011;49208;50.874;6.466;2024-02-28T11:27:14;21.75;;;11.65;;
63114;SDS011;49208;50.874;6.466;2024-02-28T11:29:40;19.55;;;10.52;;
63114;SDS011;49208;50.874;6.466;2024-02-28T11:32:06;20.60;;;11.40;;
63114;SDS011;49208;50.874;6.466;2024-02-28T11:34:34;18.63;;;10.48;;
63114;SDS011;49208;50.874;6.466;2024-02-28T11:36:59;23.55;;;11.50;;
63114;SDS011;49208;50.874;6.466;2024-02-28T11:39:25;21.70;;;10.63;;
63114;SDS011;49208;50.874;6.466;2024-02-28T11:41:51;20.40;;;10.13;;
63114;SDS011;49208;50.874;6.466;2024-02-28T11:44:17;19.40;;;11.43;;
63114;SDS011;49208;50.874;6.466;2024-02-28T11:46:47;24.08;;;11.93;;
63114;SDS011;49208;50.874;6.466;2024-02-28T11:49:14;21.15;;;10.95;;
63114;SDS011;49208;50.874;6.466;2024-02-28T11:51:43;19.60;;;10.70;;
63114;SDS011;49208;50.874;6.466;2024-02-28T11:54:10;21.60;;;9.55;;
63114;SDS011;49208;50.874;6.466;2024-02-28T11:56:36;16.15;;;8.75;;
63114;SDS011;49208;50.874;6.466;2024-02-28T11:59:03;20.42;;;9.05;;
63114;SDS011;49208;50.874;6.466;2024-02-28T12:01:36;18.08;;;9.68;;
63114;SDS011;49208;50.874;6.466;2024-02-28T12:04:03;18.88;;;8.85;;
63114;SDS011;49208;50.874;6.466;2024-02-28T12:06:30;20.45;;;11.05;;
63114;SDS011;49208;50.874;6.466;2024-02-28T12:08:56;18.85;;;10.23;;
63114;SDS011;49208;50.874;6.466;2024-02-28T12:11:21;17.10;;;10.35;;
63114;SDS011;49208;50.874;6.466;2024-02-28T12:13:52;20.42;;;10.60;;
63114;SDS011;49208;50.874;6.466;2024-02-28T12:16:18;17.55;;;9.35;;
63114;SDS011;49208;50.874;6.466;2024-02-28T12:18:47;21.60;;;11.52;;
63114;SDS011;49208;50.874;6.466;2024-02-28T12:21:13;18.58;;;9.82;;
63114;SDS011;49208;50.874;6.466;2024-02-28T12:23:38;15.90;;;9.00;;
63114;SDS011;49208;50.874;6.466;2024-02-28T12:26:03;18.48;;;8.65;;
63114;SDS011;49208;50.874;6.466;2024-02-28T12:28:29;18.17;;;9.45;;
63114;SDS011;49208;50.874;6.466;2024-02-28T12:30:55;17.73;;;9.23;;
63114;SDS011;49208;50.874;6.466;2024-02-28T12:33:21;15.25;;;8.43;;
63114;SDS011;49208;50.874;6.466;2024-02-28T12:35:47;17.58;;;9.23;;
63114;SDS011;49208;50.874;6.466;2024-02-28T12:38:13;13.88;;;7.50;;
63114;SDS011;49208;50.874;6.466;2024-02-28T12:40:39;17.83;;;8.57;;
63114;SDS011;49208;50.874;6.466;2024-02-28T12:43:05;14.57;;;8.05;;
63114;SDS011;49208;50.874;6.466;2024-02-28T12:45:30;13.88;;;8.15;;
63114;SDS011;49208;50.874;6.466;2024-02-28T12:47:56;17.50;;;8.70;;
63114;SDS011;49208;50.874;6.466;2024-02-28T12:50:22;16.25;;;8.15;;
63114;SDS011;49208;50.874;6.466;2024-02-28T12:52:49;16.08;;;9.18;;
63114;SDS011;49208;50.874;6.466;2024-02-28T12:55:18;14.73;;;7.78;;
63114;SDS011;49208;50.874;6.466;2024-02-28T12:57:44;13.45;;;7.72;;
63114;SDS011;49208;50.874;6.466;2024-02-28T13:00:10;13.68;;;7.30;;
63114;SDS011;49208;50.874;6.466;2024-02-28T13:02:36;17.95;;;8.73;;
63114;SDS011;49208;50.874;6.466;2024-02-28T13:05:01;15.30;;;7.75;;
63114;SDS011;49208;50.874;6.466;2024-02-28T13:07:27;15.68;;;7.50;;
63114;SDS011;49208;50.874;6.466;2024-02-28T13:09:55;17.48;;;8.50;;
63114;SDS011;49208;50.874;6.466;2024-02-28T13:12:20;16.25;;;8.57;;
63114;SDS011;49208;50.874;6.466;2024-02-28T13:14:46;13.43;;;6.95;;
63114;SDS011;49208;50.874;6.466;2024-02-28T13:17:12;12.38;;;6.53;;
63114;SDS011;49208;50.874;6.466;2024-02-28T13:19:38;16.15;;;7.53;;
63114;SDS011;49208;50.874;6.466;2024-02-28T13:22:03;14.48;;;7.22;;
63114;SDS011;49208;50.874;6.466;2024-02-28T13:24:28;13.57;;;7.10;;
63114;SDS011;49208;50.874;6.466;2024-02-28T13:26:54;10.95;;;6.47;;
63114;SDS011;49208;50.874;6.466;2024-02-28T13:29:19;14.18;;;7.38;;
63114;SDS011;49208;50.874;6.466;2024-02-28T13:31:44;12.02;;;7.03;;
63114;SDS011;49208;50.874;6.466;2024-02-28T13:34:10;12.18;;;7.03;;
63114;SDS011;49208;50.874;6.466;2024-02-28T13:36:35;12.52;;;6.57;;
63114;SDS011;49208;50.874;6.466;2024-02-28T13:39:02;14.95;;;6.70;;
63114;SDS011;49208;50.874;6.466;2024-02-28T13:41:28;18.42;;;7.70;;
63114;SDS011;49208;50.874;6.466;2024-02-28T13:43:53;22.50;;;9.48;;
63114;SDS011;49208;50.874;6.466;2024-02-28T13:46:19;21.95;;;10.02;;
63114;SDS011;49208;50.874;6.466;2024-02-28T13:48:44;18.42;;;9.55;;
63114;SDS011;49208;50.874;6.466;2024-02-28T13:51:10;21.50;;;9.95;;
63114;SDS011;49208;50.874;6.466;2024-02-28T13:53:36;16.35;;;8.15;;
63114;SDS011;49208;50.874;6.466;2024-02-28T13:56:01;18.85;;;8.90;;
63114;SDS011;49208;50.874;6.466;2024-02-28T13:58:27;17.95;;;9.25;;
63114;SDS011;49208;50.874;6.466;2024-02-28T14:00:53;18.33;;;8.95;;
63114;SDS011;49208;50.874;6.466;2024-02-28T14:03:18;17.40;;;7.55;;
63114;SDS011;49208;50.874;6.466;2024-02-28T14:05:43;15.23;;;8.10;;
63114;SDS011;49208;50.874;6.466;2024-02-28T14:08:09;16.65;;;7.63;;
63114;SDS011;49208;50.874;6.466;2024-02-28T14:13:02;15.57;;;8.00;;
63114;SDS011;49208;50.874;6.466;2024-02-28T14:15:28;19.15;;;7.90;;
63114;SDS011;49208;50.874;6.466;2024-02-28T14:17:53;21.45;;;8.15;;
63114;SDS011;49208;50.874;6.466;2024-02-28T14:20:19;18.13;;;8.52;;
63114;SDS011;49208;50.874;6.466;2024-02-28T14:22:44;18.77;;;8.23;;
63114;SDS011;49208;50.874;6.466;2024-02-28T14:25:10;19.02;;;7.70;;
63114;SDS011;49208;50.874;6.466;2024-02-28T14:27:38;14.55;;;6.57;;
63114;SDS011;49208;50.874;6.466;2024-02-28T14:30:04;18.90;;;8.35;;
63114;SDS011;49208;50.874;6.466;2024-02-28T14:32:33;18.77;;;9.23;;
63114;SDS011;49208;50.874;6.466;2024-02-28T14:34:58;16.20;;;7.75;;
63114;SDS011;49208;50.874;6.466;2024-02-28T14:37:24;15.95;;;8.38;;
63114;SDS011;49208;50.874;6.466;2024-02-28T14:39:49;14.73;;;7.03;;
63114;SDS011;49208;50.874;6.466;2024-02-28T14:42:14;12.48;;;6.90;;
63114;SDS011;49208;50.874;6.466;2024-02-28T14:44:40;16.48;;;7.50;;
63114;SDS011;49208;50.874;6.466;2024-02-28T14:47:05;14.77;;;6.80;;
63114;SDS011;49208;50.874;6.466;2024-02-28T14:49:30;14.38;;;6.60;;
63114;SDS011;49208;50.874;6.466;2024-02-28T14:51:56;13.40;;;6.13;;
63114;SDS011;49208;50.874;6.466;2024-02-28T14:54:21;14.07;;;5.78;;
63114;SDS011;49208;50.874;6.466;2024-02-28T14:56:48;10.82;;;4.85;;
63114;SDS011;49208;50.874;6.466;2024-02-28T14:59:14;8.85;;;4.68;;
63114;SDS011;49208;50.874;6.466;2024-02-28T15:01:39;10.05;;;4.55;;
63114;SDS011;49208;50.874;6.466;2024-02-28T15:04:04;11.05;;;4.35;;
63114;SDS011;49208;50.874;6.466;2024-02-28T15:06:30;7.70;;;3.90;;
63114;SDS011;49208;50.874;6.466;2024-02-28T15:08:56;8.68;;;4.22;;
63114;SDS011;49208;50.874;6.466;2024-02-28T15:11:21;10.57;;;4.47;;
63114;SDS011;49208;50.874;6.466;2024-02-28T15:13:46;10.93;;;4.55;;
63114;SDS011;49208;50.874;6.466;2024-02-28T15:16:13;9.82;;;4.22;;
63114;SDS011;49208;50.874;6.466;2024-02-28T15:18:38;11.07;;;5.13;;
63114;SDS011;49208;50.874;6.466;2024-02-28T15:21:03;9.35;;;4.30;;
63114;SDS011;49208;50.874;6.466;2024-02-28T15:23:29;9.32;;;4.07;;
63114;SDS011;49208;50.874;6.466;2024-02-28T15:25:55;10.98;;;4.65;;
63114;SDS011;49208;50.874;6.466;2024-02-28T15:28:21;8.65;;;3.83;;
63114;SDS011;49208;50.874;6.466;2024-02-28T15:33:14;9.23;;;3.80;;
63114;SDS011;49208;50.874;6.466;2024-02-28T15:35:39;7.53;;;3.75;;
63114;SDS011;49208;50.874;6.466;2024-02-28T15:38:04;11.82;;;5.80;;
63114;SDS011;49208;50.874;6.466;2024-02-28T15:40:30;13.85;;;6.22;;
63114;SDS011;49208;50.874;6.466;2024-02-28T15:42:55;12.40;;;6.28;;
63114;SDS011;49208;50.874;6.466;2024-02-28T15:45:23;10.85;;;5.10;;
63114;SDS011;49208;50.874;6.466;2024-02-28T15:47:48;12.07;;;6.00;;
63114;SDS011;49208;50.874;6.466;2024-02-28T15:52:41;13.95;;;5.55;;
63114;SDS011;49208;50.874;6.466;2024-02-28T15:55:07;14.93;;;6.47;;
63114;SDS011;49208;50.874;6.466;2024-02-28T15:57:35;14.77;;;7.35;;
63114;SDS011;49208;50.874;6.466;2024-02-28T16:00:00;14.38;;;6.43;;
63114;SDS011;49208;50.874;6.466;2024-02-28T16:02:25;15.30;;;6.75;;
63114;SDS011;49208;50.874;6.466;2024-02-28T16:04:51;16.52;;;7.03;;
63114;SDS011;49208;50.874;6.466;2024-02-28T16:07:16;13.73;;;7.00;;
63114;SDS011;49208;50.874;6.466;2024-02-28T16:09:42;15.60;;;8.05;;
63114;SDS011;49208;50.874;6.466;2024-02-28T16:12:08;14.80;;;7.70;;
63114;SDS011;49208;50.874;6.466;2024-02-28T16:14:34;17.75;;;8.25;;
63114;SDS011;49208;50.874;6.466;2024-02-28T16:16:59;14.00;;;7.43;;
63114;SDS011;49208;50.874;6.466;2024-02-28T16:19:25;21.05;;;8.18;;
63114;SDS011;49208;50.874;6.466;2024-02-28T16:21:50;17.17;;;8.32;;
63114;SDS011;49208;50.874;6.466;2024-02-28T16:24:17;17.30;;;8.43;;
63114;SDS011;49208;50.874;6.466;2024-02-28T16:26:42;17.35;;;8.27;;
63114;SDS011;49208;50.874;6.466;2024-02-28T16:29:08;17.50;;;9.30;;
63114;SDS011;49208;50.874;6.466;2024-02-28T16:31:34;17.27;;;8.93;;
63114;SDS011;49208;50.874;6.466;2024-02-28T16:34:00;19.05;;;7.63;;
63114;SDS011;49208;50.874;6.466;2024-02-28T16:36:25;17.30;;;8.70;;
63114;SDS011;49208;50.874;6.466;2024-02-28T16:38:52;19.25;;;8.75;;
63114;SDS011;49208;50.874;6.466;2024-02-28T16:41:21;20.53;;;10.60;;
63114;SDS011;49208;50.874;6.466;2024-02-28T16:43:46;20.13;;;8.68;;
63114;SDS011;49208;50.874;6.466;2024-02-28T16:46:12;21.23;;;9.48;;
63114;SDS011;49208;50.874;6.466;2024-02-28T16:48:38;22.42;;;10.30;;
63114;SDS011;49208;50.874;6.466;2024-02-28T16:51:03;19.65;;;9.48;;
63114;SDS011;49208;50.874;6.466;2024-02-28T16:53:29;17.40;;;9.10;;
63114;SDS011;49208;50.874;6.466;2024-02-28T16:55:56;16.45;;;8.57;;
63114;SDS011;49208;50.874;6.466;2024-02-28T16:58:24;17.00;;;8.05;;
63114;SDS011;49208;50.874;6.466;2024-02-28T17:00:49;15.88;;;7.85;;
63114;SDS011;49208;50.874;6.466;2024-02-28T17:03:15;16.35;;;8.05;;
63114;SDS011;49208;50.874;6.466;2024-02-28T17:05:40;18.73;;;8.95;;
63114;SDS011;49208;50.874;6.466;2024-02-28T17:08:06;18.10;;;8.93;;
63114;SDS011;49208;50.874;6.466;2024-02-28T17:10:33;18.08;;;8.45;;
63114;SDS011;49208;50.874;6.466;2024-02-28T17:13:00;19.52;;;9.73;;
63114;SDS011;49208;50.874;6.466;2024-02-28T17:15:26;17.35;;;8.27;;
63114;SDS011;49208;50.874;6.466;2024-02-28T17:17:51;19.92;;;8.30;;
63114;SDS011;49208;50.874;6.466;2024-02-28T17:20:16;18.13;;;8.15;;
63114;SDS011;49208;50.874;6.466;2024-02-28T17:22:43;17.13;;;9.07;;
63114;SDS011;49208;50.874;6.466;2024-02-28T17:25:08;17.75;;;8.02;;
63114;SDS011;49208;50.874;6.466;2024-02-28T17:27:33;18.20;;;8.45;;
63114;SDS011;49208;50.874;6.466;2024-02-28T17:29:59;19.33;;;10.43;;
63114;SDS011;49208;50.874;6.466;2024-02-28T17:32:24;19.13;;;8.85;;
63114;SDS011;49208;50.874;6.466;2024-02-28T17:34:51;22.80;;;10.13;;
63114;SDS011;49208;50.874;6.466;2024-02-28T17:37:17;19.60;;;9.60;;
63114;SDS011;49208;50.874;6.466;2024-02-28T17:39:45;14.20;;;8.18;;
63114;SDS011;49208;50.874;6.466;2024-02-28T17:42:10;17.33;;;9.00;;
63114;SDS011;49208;50.874;6.466;2024-02-28T17:44:36;20.73;;;10.10;;
63114;SDS011;49208;50.874;6.466;2024-02-28T17:47:01;18.98;;;9.68;;
63114;SDS011;49208;50.874;6.466;2024-02-28T17:49:26;15.73;;;8.70;;
63114;SDS011;49208;50.874;6.466;2024-02-28T17:51:52;15.43;;;7.25;;
63114;SDS011;49208;50.874;6.466;2024-02-28T17:54:18;16.25;;;7.97;;
63114;SDS011;49208;50.874;6.466;2024-02-28T17:56:44;14.50;;;7.88;;
63114;SDS011;49208;50.874;6.466;2024-02-28T17:59:10;19.65;;;9.13;;
63114;SDS011;49208;50.874;6.466;2024-02-28T18:01:35;18.50;;;10.10;;
63114;SDS011;49208;50.874;6.466;2024-02-28T18:04:01;18.55;;;10.05;;
63114;SDS011;49208;50.874;6.466;2024-02-28T18:06:26;19.60;;;10.45;;
63114;SDS011;49208;50.874;6.466;2024-02-28T18:08:52;16.90;;;9.73;;
63114;SDS011;49208;50.874;6.466;2024-02-28T18:11:24;17.00;;;8.88;;
63114;SDS011;49208;50.874;6.466;2024-02-28T18:13:52;17.92;;;10.07;;
63114;SDS011;49208;50.874;6.466;2024-02-28T18:16:17;16.23;;;9.45;;
63114;SDS011;49208;50.874;6.466;2024-02-28T18:18:44;14.38;;;8.02;;
63114;SDS011;49208;50.874;6.466;2024-02-28T18:21:10;14.52;;;7.53;;
63114;SDS011;49208;50.874;6.466;2024-02-28T18:23:35;15.65;;;8.63;;
63114;SDS011;49208;50.874;6.466;2024-02-28T18:26:01;14.85;;;8.75;;
63114;SDS011;49208;50.874;6.466;2024-02-28T18:28:27;17.50;;;7.93;;
63114;SDS011;49208;50.874;6.466;2024-02-28T18:30:53;15.35;;;7.75;;
63114;SDS011;49208;50.874;6.466;2024-02-28T18:33:19;15.30;;;8.15;;
63114;SDS011;49208;50.874;6.466;2024-02-28T18:35:44;20.02;;;10.85;;
63114;SDS011;49208;50.874;6.466;2024-02-28T18:38:10;14.80;;;7.78;;
63114;SDS011;49208;50.874;6.466;2024-02-28T18:40:35;17.85;;;9.85;;
63114;SDS011;49208;50.874;6.466;2024-02-28T18:43:01;18.40;;;9.77;;
63114;SDS011;49208;50.874;6.466;2024-02-28T18:45:27;16.40;;;10.17;;
63114;SDS011;49208;50.874;6.466;2024-02-28T18:47:53;16.98;;;7.85;;
63114;SDS011;49208;50.874;6.466;2024-02-28T18:50:18;20.73;;;11.48;;
63114;SDS011;49208;50.874;6.466;2024-02-28T18:52:49;21.45;;;10.45;;
63114;SDS011;49208;50.874;6.466;2024-02-28T18:55:14;17.17;;;9.90;;
63114;SDS011;49208;50.874;6.466;2024-02-28T18:57:40;18.77;;;11.27;;
63114;SDS011;49208;50.874;6.466;2024-02-28T19:00:05;19.70;;;10.68;;
63114;SDS011;49208;50.874;6.466;2024-02-28T19:02:31;23.17;;;11.48;;
63114;SDS011;49208;50.874;6.466;2024-02-28T19:04:58;22.00;;;11.15;;
63114;SDS011;49208;50.874;6.466;2024-02-28T19:07:24;20.45;;;11.38;;
63114;SDS011;49208;50.874;6.466;2024-02-28T19:09:49;21.85;;;12.05;;
63114;SDS011;49208;50.874;6.466;2024-02-28T19:12:15;19.13;;;10.40;;
63114;SDS011;49208;50.874;6.466;2024-02-28T19:14:40;19.88;;;10.93;;
63114;SDS011;49208;50.874;6.466;2024-02-28T19:17:05;18.90;;;9.70;;
63114;SDS011;49208;50.874;6.466;2024-02-28T19:19:31;18.65;;;9.93;;
63114;SDS011;49208;50.874;6.466;2024-02-28T19:21:57;18.73;;;10.73;;
63114;SDS011;49208;50.874;6.466;2024-02-28T19:24:23;23.48;;;10.95;;
63114;SDS011;49208;50.874;6.466;2024-02-28T19:26:49;21.25;;;10.77;;
63114;SDS011;49208;50.874;6.466;2024-02-28T19:29:15;21.15;;;11.98;;
63114;SDS011;49208;50.874;6.466;2024-02-28T19:31:40;34.40;;;25.05;;
63114;SDS011;49208;50.874;6.466;2024-02-28T19:34:06;31.85;;;21.70;;
63114;SDS011;49208;50.874;6.466;2024-02-28T19:36:31;30.42;;;18.63;;
63114;SDS011;49208;50.874;6.466;2024-02-28T19:38:57;26.30;;;16.38;;
63114;SDS011;49208;50.874;6.466;2024-02-28T19:41:28;28.00;;;13.77;;
63114;SDS011;49208;50.874;6.466;2024-02-28T19:43:55;24.02;;;13.20;;
63114;SDS011;49208;50.874;6.466;2024-02-28T19:46:20;20.17;;;12.73;;
63114;SDS011;49208;50.874;6.466;2024-02-28T19:48:46;22.75;;;11.88;;
63114;SDS011;49208;50.874;6.466;2024-02-28T19:51:12;21.80;;;12.35;;
63114;SDS011;49208;50.874;6.466;2024-02-28T19:53:41;20.70;;;12.02;;
63114;SDS011;49208;50.874;6.466;2024-02-28T19:56:06;23.98;;;11.82;;
63114;SDS011;49208;50.874;6.466;2024-02-28T19:58:32;19.25;;;10.90;;
63114;SDS011;49208;50.874;6.466;2024-02-28T20:00:57;21.08;;;11.02;;
63114;SDS011;49208;50.874;6.466;2024-02-28T20:03:23;22.17;;;12.23;;
63114;SDS011;49208;50.874;6.466;2024-02-28T20:05:48;22.13;;;11.60;;
63114;SDS011;49208;50.874;6.466;2024-02-28T20:08:14;21.02;;;11.65;;
63114;SDS011;49208;50.874;6.466;2024-02-28T20:10:39;22.15;;;11.85;;
63114;SDS011;49208;50.874;6.466;2024-02-28T20:13:05;21.98;;;12.32;;
63114;SDS011;49208;50.874;6.466;2024-02-28T20:15:30;20.58;;;11.90;;
63114;SDS011;49208;50.874;6.466;2024-02-28T20:17:56;20.00;;;12.43;;
63114;SDS011;49208;50.874;6.466;2024-02-28T20:20:21;21.02;;;10.38;;
63114;SDS011;49208;50.874;6.466;2024-02-28T20:22:48;18.03;;;11.80;;
63114;SDS011;49208;50.874;6.466;2024-02-28T20:25:14;21.02;;;11.45;;
63114;SDS011;49208;50.874;6.466;2024-02-28T20:27:40;18.27;;;10.45;;
63114;SDS011;49208;50.874;6.466;2024-02-28T20:30:06;19.95;;;10.93;;
63114;SDS011;49208;50.874;6.466;2024-02-28T20:32:32;22.52;;;12.25;;
63114;SDS011;49208;50.874;6.466;2024-02-28T20:34:58;22.50;;;11.13;;
63114;SDS011;49208;50.874;6.466;2024-02-28T20:37:23;18.55;;;11.23;;
63114;SDS011;49208;50.874;6.466;2024-02-28T20:39:49;21.80;;;11.90;;
63114;SDS011;49208;50.874;6.466;2024-02-28T20:42:14;20.23;;;11.07;;
63114;SDS011;49208;50.874;6.466;2024-02-28T20:44:40;19.17;;;11.35;;
63114;SDS011;49208;50.874;6.466;2024-02-28T20:47:05;21.35;;;10.82;;
63114;SDS011;49208;50.874;6.466;2024-02-28T20:49:33;20.70;;;11.98;;
63114;SDS011;49208;50.874;6.466;2024-02-28T20:52:00;23.23;;;12.73;;
63114;SDS011;49208;50.874;6.466;2024-02-28T20:54:26;19.40;;;10.93;;
63114;SDS011;49208;50.874;6.466;2024-02-28T20:56:52;22.83;;;11.75;;
63114;SDS011;49208;50.874;6.466;2024-02-28T20:59:17;23.13;;;11.05;;
63114;SDS011;49208;50.874;6.466;2024-02-28T21:01:43;18.65;;;10.38;;
63114;SDS011;49208;50.874;6.466;2024-02-28T21:04:08;20.00;;;10.45;;
63114;SDS011;49208;50.874;6.466;2024-02-28T21:06:35;22.10;;;10.70;;
63114;SDS011;49208;50.874;6.466;2024-02-28T21:09:01;20.80;;;11.20;;
63114;SDS011;49208;50.874;6.466;2024-02-28T21:11:27;18.05;;;10.25;;
63114;SDS011;49208;50.874;6.466;2024-02-28T21:13:53;20.85;;;10.23;;
63114;SDS011;49208;50.874;6.466;2024-02-28T21:16:22;20.58;;;10.88;;
63114;SDS011;49208;50.874;6.466;2024-02-28T21:18:48;21.30;;;12.90;;
63114;SDS011;49208;50.874;6.466;2024-02-28T21:21:18;23.15;;;11.70;;
63114;SDS011;49208;50.874;6.466;2024-02-28T21:23:44;22.80;;;12.68;;
63114;SDS011;49208;50.874;6.466;2024-02-28T21:26:09;26.05;;;12.60;;
63114;SDS011;49208;50.874;6.466;2024-02-28T21:28:35;22.63;;;12.13;;
63114;SDS011;49208;50.874;6.466;2024-02-28T21:31:00;20.55;;;11.93;;
63114;SDS011;49208;50.874;6.466;2024-02-28T21:33:26;19.52;;;10.13;;
63114;SDS011;49208;50.874;6.466;2024-02-28T21:35:52;15.05;;;8.18;;
63114;SDS011;49208;50.874;6.466;2024-02-28T21:38:17;19.02;;;9.20;;
63114;SDS011;49208;50.874;6.466;2024-02-28T21:40:43;14.90;;;7.75;;
63114;SDS011;49208;50.874;6.466;2024-02-28T21:43:08;18.65;;;10.07;;
63114;SDS011;49208;50.874;6.466;2024-02-28T21:45:34;17.92;;;9.02;;
63114;SDS011;49208;50.874;6.466;2024-02-28T21:47:59;16.85;;;9.18;;
63114;SDS011;49208;50.874;6.466;2024-02-28T21:50:25;13.15;;;7.90;;
63114;SDS011;49208;50.874;6.466;2024-02-28T21:52:51;16.58;;;8.93;;
63114;SDS011;49208;50.874;6.466;2024-02-28T21:57:44;19.10;;;8.88;;
63114;SDS011;49208;50.874;6.466;2024-02-28T22:00:09;15.77;;;8.90;;
63114;SDS011;49208;50.874;6.466;2024-02-28T22:02:35;13.10;;;7.47;;